Rechercher aéroport 
image banner adimage banner adimage banner ad
image banner ad

CA73 - Vanderford Ranch Company

Situé à Yuba City, United States

ICAO - CA73, IATA -

Données fournies par Airmate  

Information générale

Coordonnées: N39°5'45" W121°42'59"
Élévation : 42 feet MSL.
Variation magnétique : 16° East
Voir autres Aéroports à California

Données opérationnelles

Special qualification required
Heure actuelle UTC:
Heure actuelle locale:
Météo à : KMYV - Yuba County ( 13 km )
METAR: KMYV 251053Z AUTO 17004KT 10SM CLR 21/09 A2986 RMK AO2 SLP113 T02110089
Voir NOTAMs / SUP AIP / TFR affectant cet aéroport [VIEW]
Fréquences de communication: [VIEW]

Pistes:

Identifiant RWYQFULongueur (ft)Largeur (ft)SurfaceLDA (ft)
16322048ASPH
34322048ASPH

Coordonnées de l'aéroport

Adresse: Yuba City United States

Vue satellite de CA73